createdAt,value
2023-01-18T00:01:15.726Z,2.37
2023-01-18T00:03:42.639Z,2.50
2023-01-18T00:06:10.804Z,2.33
2023-01-18T00:08:38.874Z,2.53
2023-01-18T00:11:11.116Z,2.50
2023-01-18T00:13:38.577Z,2.40
2023-01-18T00:16:16.460Z,2.37
2023-01-18T00:18:43.961Z,2.97
2023-01-18T00:21:12.145Z,2.40
2023-01-18T00:23:38.762Z,2.83
2023-01-18T00:26:08.012Z,2.60
2023-01-18T00:28:35.301Z,3.07
2023-01-18T00:31:02.973Z,2.30
2023-01-18T00:33:29.585Z,2.17
2023-01-18T00:36:01.050Z,2.67
2023-01-18T00:38:29.116Z,2.60
2023-01-18T00:40:56.280Z,2.50
2023-01-18T00:43:41.383Z,2.30
2023-01-18T00:46:16.173Z,2.43
2023-01-18T00:48:44.261Z,2.67
2023-01-18T00:51:14.621Z,2.50
2023-01-18T00:53:44.180Z,2.50
2023-01-18T00:56:15.802Z,2.50
2023-01-18T00:58:42.540Z,2.03
2023-01-18T01:01:10.169Z,2.50
2023-01-18T01:04:13.154Z,2.63
2023-01-18T01:06:45.897Z,2.40
2023-01-18T01:09:13.995Z,2.93
2023-01-18T01:12:00.625Z,2.20
2023-01-18T01:14:46.096Z,2.70
2023-01-18T01:17:31.073Z,2.93
2023-01-18T01:20:16.333Z,2.93
2023-01-18T01:23:01.617Z,2.60
2023-01-18T01:25:46.469Z,2.70
2023-01-18T01:28:13.098Z,3.13
2023-01-18T01:30:40.144Z,2.67
2023-01-18T01:33:06.821Z,2.80
2023-01-18T01:35:33.402Z,2.90
2023-01-18T01:37:59.958Z,3.00
2023-01-18T01:40:26.593Z,2.63
2023-01-18T01:42:53.187Z,2.80
2023-01-18T01:45:24.195Z,3.00
2023-01-18T01:47:52.101Z,2.67
2023-01-18T01:50:36.763Z,2.60
2023-01-18T01:53:04.209Z,2.70
2023-01-18T01:55:37.685Z,2.40
2023-01-18T01:58:21.733Z,3.50
2023-01-18T02:00:48.602Z,2.90
2023-01-18T02:03:21.043Z,3.07
2023-01-18T02:05:53.556Z,3.03
2023-01-18T02:08:23.024Z,3.13
2023-01-18T02:10:50.962Z,3.07
2023-01-18T02:13:19.576Z,3.40
2023-01-18T02:16:08.279Z,3.17
2023-01-18T02:18:51.567Z,3.00
2023-01-18T02:21:21.252Z,3.37
2023-01-18T02:24:04.904Z,3.23
2023-01-18T02:26:49.875Z,3.57
2023-01-18T02:29:21.288Z,3.43
2023-01-18T02:32:15.886Z,3.17
2023-01-18T02:35:14.662Z,3.03
2023-01-18T02:37:49.893Z,3.30
2023-01-18T02:40:28.197Z,3.23
2023-01-18T02:43:15.470Z,3.23
2023-01-18T02:46:03.932Z,3.17
2023-01-18T02:48:35.620Z,3.23
2023-01-18T02:51:02.313Z,3.07
2023-01-18T02:53:30.360Z,2.87
2023-01-18T02:56:08.564Z,3.10
2023-01-18T02:58:41.012Z,3.20
2023-01-18T03:01:15.175Z,3.43
2023-01-18T03:03:45.828Z,3.30
2023-01-18T03:06:12.659Z,3.73
2023-01-18T03:08:51.582Z,3.63
2023-01-18T03:11:34.555Z,3.70
2023-01-18T03:14:20.831Z,3.47
2023-01-18T03:17:03.483Z,3.67
2023-01-18T03:19:56.168Z,3.20
2023-01-18T03:22:45.689Z,3.57
2023-01-18T03:25:16.087Z,3.50
2023-01-18T03:28:04.078Z,3.73
2023-01-18T03:30:52.401Z,3.60
2023-01-18T03:33:40.763Z,3.37
2023-01-18T03:36:12.727Z,3.70
2023-01-18T03:38:42.527Z,3.90
2023-01-18T03:41:11.582Z,4.13
2023-01-18T03:43:41.757Z,4.17
2023-01-18T03:46:08.768Z,3.90
2023-01-18T03:48:38.930Z,3.63
2023-01-18T03:51:11.552Z,4.20
2023-01-18T03:53:59.370Z,4.20
2023-01-18T03:56:46.294Z,3.80
2023-01-18T03:59:13.992Z,3.80
2023-01-18T04:01:41.519Z,4.10
2023-01-18T04:04:08.101Z,4.00
2023-01-18T04:06:34.783Z,3.87
2023-01-18T04:09:01.436Z,3.90
2023-01-18T04:11:28.429Z,3.70
2023-01-18T04:13:55.120Z,3.70
2023-01-18T04:16:22.081Z,3.83
2023-01-18T04:18:48.695Z,3.93
2023-01-18T04:21:15.326Z,4.17
2023-01-18T04:23:41.867Z,3.27
2023-01-18T04:26:08.457Z,4.53
2023-01-18T04:28:35.155Z,4.37
2023-01-18T04:31:01.817Z,3.90
2023-01-18T04:33:28.499Z,4.07
2023-01-18T04:35:55.085Z,4.00
2023-01-18T04:38:22.202Z,4.00
2023-01-18T04:40:48.929Z,3.73
2023-01-18T04:43:15.577Z,4.13
2023-01-18T04:45:42.345Z,4.03
2023-01-18T04:48:08.961Z,3.73
2023-01-18T04:50:38.878Z,3.77
2023-01-18T04:53:05.530Z,3.47
2023-01-18T04:55:32.063Z,4.67
2023-01-18T04:57:58.752Z,4.83
2023-01-18T05:00:25.387Z,4.60
2023-01-18T05:02:52.048Z,4.97
2023-01-18T05:05:18.641Z,4.73
2023-01-18T05:07:45.249Z,4.63
2023-01-18T05:10:12.430Z,5.10
2023-01-18T05:12:39.037Z,4.40
2023-01-18T05:15:06.190Z,4.20
2023-01-18T05:17:34.814Z,4.73
2023-01-18T05:20:04.425Z,4.70
2023-01-18T05:22:33.039Z,5.60
2023-01-18T05:25:00.563Z,5.53
2023-01-18T05:27:27.199Z,5.47
2023-01-18T05:29:53.840Z,5.50
2023-01-18T05:32:20.438Z,6.27
2023-01-18T05:34:47.053Z,6.13
2023-01-18T05:37:13.731Z,6.57
2023-01-18T05:39:40.283Z,5.50
2023-01-18T05:42:07.129Z,6.57
2023-01-18T05:44:33.731Z,6.70
2023-01-18T05:47:00.524Z,6.90
2023-01-18T05:49:29.156Z,6.43
2023-01-18T05:51:55.703Z,6.67
2023-01-18T05:54:22.393Z,7.00
2023-01-18T05:56:49.021Z,6.70
2023-01-18T05:59:15.739Z,6.07
2023-01-18T06:01:42.796Z,6.63
2023-01-18T06:04:09.984Z,6.37
2023-01-18T06:06:36.605Z,6.97
2023-01-18T06:09:03.491Z,6.40
2023-01-18T06:11:30.111Z,6.53
2023-01-18T06:13:56.727Z,7.00
2023-01-18T06:16:24.530Z,6.10
2023-01-18T06:18:51.376Z,6.77
2023-01-18T06:21:18.201Z,6.20
2023-01-18T06:23:44.866Z,6.50
2023-01-18T06:26:11.543Z,6.43
2023-01-18T06:28:38.229Z,6.57
2023-01-18T06:31:07.796Z,7.10
2023-01-18T06:33:34.722Z,6.20
2023-01-18T06:36:01.482Z,7.10
2023-01-18T06:38:28.962Z,7.60
2023-01-18T06:40:55.584Z,6.97
2023-01-18T06:43:22.938Z,7.20
2023-01-18T06:45:56.501Z,7.07
2023-01-18T06:48:24.250Z,7.03
2023-01-18T06:50:52.446Z,6.60
2023-01-18T06:53:20.728Z,6.80
2023-01-18T06:56:14.450Z,6.33
2023-01-18T06:58:41.062Z,7.17
2023-01-18T07:01:08.183Z,7.17
2023-01-18T07:03:34.904Z,6.63
2023-01-18T07:06:03.391Z,7.10
2023-01-18T07:08:31.159Z,6.83
2023-01-18T07:10:59.423Z,6.93
2023-01-18T07:13:26.283Z,5.43
2023-01-18T07:16:02.005Z,5.23
2023-01-18T07:18:30.503Z,5.83
2023-01-18T07:21:07.089Z,5.73
2023-01-18T07:23:36.155Z,6.17
2023-01-18T07:26:05.375Z,6.80
2023-01-18T07:28:32.753Z,7.20
2023-01-18T07:31:00.388Z,7.10
2023-01-18T07:33:28.251Z,8.07
2023-01-18T07:35:56.500Z,7.53
2023-01-18T07:38:23.692Z,7.83
2023-01-18T07:40:50.782Z,7.70
2023-01-18T07:43:18.277Z,8.03
2023-01-18T07:45:53.455Z,6.93
2023-01-18T07:48:20.881Z,6.60
2023-01-18T07:50:59.149Z,6.80
2023-01-18T07:53:26.957Z,6.63
2023-01-18T07:55:54.514Z,6.20
2023-01-18T07:58:21.138Z,7.03
2023-01-18T08:00:47.848Z,7.23
2023-01-18T08:03:17.526Z,7.53
2023-01-18T08:05:45.284Z,9.30
2023-01-18T08:08:13.831Z,8.77
2023-01-18T08:10:41.396Z,10.67
2023-01-18T08:13:11.042Z,8.90
2023-01-18T08:15:40.433Z,9.00
2023-01-18T08:18:08.498Z,8.93
2023-01-18T08:20:35.302Z,8.33
2023-01-18T08:23:02.675Z,7.90
2023-01-18T08:25:31.686Z,7.80
2023-01-18T08:28:00.164Z,8.50
2023-01-18T08:30:28.678Z,8.13
2023-01-18T08:32:59.031Z,9.20
2023-01-18T08:35:31.773Z,13.20
2023-01-18T08:37:59.622Z,25.80
2023-01-18T08:40:27.268Z,35.97
2023-01-18T08:42:59.069Z,50.43
2023-01-18T08:45:27.186Z,39.83
2023-01-18T08:47:58.427Z,26.30
2023-01-18T08:50:25.397Z,23.97
2023-01-18T08:52:54.981Z,34.50
2023-01-18T08:55:22.084Z,30.30
2023-01-18T08:57:49.558Z,29.40
2023-01-18T09:00:17.543Z,27.97
2023-01-18T09:02:44.229Z,26.27
2023-01-18T09:05:10.976Z,22.90
2023-01-18T09:07:37.581Z,20.77
2023-01-18T09:10:04.884Z,15.53
2023-01-18T09:12:34.745Z,13.60
2023-01-18T09:15:01.768Z,13.80
2023-01-18T09:17:28.596Z,11.97
2023-01-18T09:19:55.234Z,11.17
2023-01-18T09:22:24.198Z,11.20
2023-01-18T09:24:51.621Z,12.67
2023-01-18T09:27:18.315Z,13.37
2023-01-18T09:29:52.005Z,13.63
2023-01-18T09:32:20.178Z,12.33
2023-01-18T09:34:50.659Z,11.37
2023-01-18T09:37:19.101Z,12.37
2023-01-18T09:39:51.727Z,12.07
2023-01-18T09:42:22.309Z,11.57
2023-01-18T09:44:55.349Z,11.40
2023-01-18T09:47:27.625Z,11.07
2023-01-18T09:49:58.364Z,11.57
2023-01-18T09:52:46.615Z,10.43
2023-01-18T09:55:22.734Z,11.30
2023-01-18T09:58:04.923Z,11.03
2023-01-18T10:00:35.679Z,11.60
2023-01-18T10:03:14.025Z,10.77
2023-01-18T10:05:48.891Z,11.13
2023-01-18T10:08:21.586Z,10.80
2023-01-18T10:10:51.756Z,10.77
2023-01-18T10:13:45.837Z,12.13
2023-01-18T10:16:16.789Z,12.13
2023-01-18T10:18:49.670Z,13.10
2023-01-18T10:21:44.108Z,11.90
2023-01-18T10:24:33.911Z,12.63
2023-01-18T10:27:27.243Z,12.30
2023-01-18T10:29:56.783Z,13.13
2023-01-18T10:32:25.896Z,12.70
2023-01-18T10:34:52.655Z,13.60
2023-01-18T10:37:42.695Z,13.33
2023-01-18T10:40:12.561Z,12.23
2023-01-18T10:42:56.814Z,14.20
2023-01-18T10:45:29.836Z,12.90
2023-01-18T10:47:58.748Z,13.20
2023-01-18T10:50:39.927Z,14.07
2023-01-18T10:53:32.840Z,13.20
2023-01-18T10:56:18.606Z,13.30
2023-01-18T10:58:51.118Z,12.40
2023-01-18T11:01:20.324Z,12.97
2023-01-18T11:03:51.156Z,11.80
2023-01-18T11:06:20.634Z,12.07
2023-01-18T11:08:51.868Z,12.03
2023-01-18T11:11:49.603Z,12.07
2023-01-18T11:14:23.857Z,11.07
2023-01-18T11:17:11.482Z,10.27
2023-01-18T11:19:38.877Z,10.50
2023-01-18T11:22:13.361Z,11.03
2023-01-18T11:24:40.233Z,10.87
2023-01-18T11:27:19.067Z,10.83
2023-01-18T11:29:46.593Z,11.47
2023-01-18T11:32:34.222Z,10.50
2023-01-18T11:35:08.670Z,10.73
2023-01-18T11:37:37.857Z,10.90
2023-01-18T11:40:34.995Z,10.13
2023-01-18T11:43:15.789Z,10.60
2023-01-18T11:45:59.470Z,10.83
2023-01-18T11:48:33.407Z,9.83
2023-01-18T11:51:10.624Z,10.43
2023-01-18T11:53:58.478Z,10.13
2023-01-18T11:56:39.583Z,9.90
2023-01-18T11:59:15.056Z,9.93
2023-01-18T12:01:55.226Z,9.33
2023-01-18T12:04:27.615Z,9.37
2023-01-18T12:07:20.151Z,9.00
2023-01-18T12:09:55.846Z,9.37
2023-01-18T12:13:04.723Z,8.17
2023-01-18T12:15:47.200Z,8.33
2023-01-18T12:18:40.742Z,9.17
2023-01-18T12:21:12.216Z,9.50
2023-01-18T12:24:40.215Z,9.13
2023-01-18T12:27:20.690Z,8.47
2023-01-18T12:30:03.673Z,8.77
2023-01-18T12:33:04.772Z,8.60
2023-01-18T12:36:07.442Z,7.60
2023-01-18T12:38:35.680Z,7.93
2023-01-18T12:41:21.257Z,7.57
2023-01-18T12:43:48.307Z,7.57
2023-01-18T12:46:21.812Z,6.83
2023-01-18T12:48:56.555Z,6.93
2023-01-18T12:51:25.791Z,6.40
2023-01-18T12:54:03.732Z,6.23
2023-01-18T12:56:40.387Z,6.70
2023-01-18T12:59:15.837Z,6.30
2023-01-18T13:01:47.436Z,6.80
2023-01-18T13:04:44.939Z,6.10
2023-01-18T13:07:15.426Z,7.37
2023-01-18T13:09:48.767Z,7.37
2023-01-18T13:12:16.375Z,6.47
2023-01-18T13:14:51.312Z,6.53
2023-01-18T13:17:28.713Z,6.27
2023-01-18T13:20:19.073Z,6.60
2023-01-18T13:23:00.516Z,5.73
2023-01-18T13:25:40.501Z,5.57
2023-01-18T13:28:19.395Z,5.83
2023-01-18T13:31:02.014Z,5.03
2023-01-18T13:33:56.141Z,4.70
2023-01-18T13:36:22.769Z,4.80
2023-01-18T13:38:56.753Z,5.20
2023-01-18T13:41:25.776Z,4.90
2023-01-18T13:43:53.273Z,5.43
2023-01-18T13:46:21.491Z,5.13
2023-01-18T13:48:59.229Z,6.40
2023-01-18T13:51:41.067Z,5.20
2023-01-18T13:54:10.193Z,5.47
2023-01-18T13:56:38.115Z,4.73
2023-01-18T13:59:26.141Z,4.20
2023-01-18T14:02:04.924Z,6.37
2023-01-18T14:04:34.374Z,4.83
2023-01-18T14:07:04.175Z,5.07
2023-01-18T14:09:39.648Z,4.90
2023-01-18T14:12:07.608Z,4.30
2023-01-18T14:14:56.121Z,4.63
2023-01-18T14:17:25.449Z,4.70
2023-01-18T14:20:02.656Z,5.70
2023-01-18T14:22:50.768Z,4.80
2023-01-18T14:26:08.056Z,4.30
2023-01-18T14:28:52.406Z,10.07
2023-01-18T14:31:31.704Z,5.00
2023-01-18T14:33:58.624Z,4.70
2023-01-18T14:36:28.667Z,5.20
2023-01-18T14:39:14.422Z,4.70
2023-01-18T14:41:43.545Z,4.50
2023-01-18T14:44:56.849Z,5.13
2023-01-18T14:47:28.767Z,6.00
2023-01-18T14:49:55.791Z,5.40
2023-01-18T14:52:27.401Z,5.13
2023-01-18T14:54:55.860Z,5.27
2023-01-18T14:57:24.086Z,5.40
2023-01-18T15:00:15.436Z,5.93
2023-01-18T15:02:42.757Z,5.87
2023-01-18T15:05:12.179Z,5.67
2023-01-18T15:07:40.492Z,5.37
2023-01-18T15:10:08.509Z,5.33
2023-01-18T15:12:36.175Z,5.23
2023-01-18T15:15:13.385Z,5.30
2023-01-18T15:17:40.049Z,5.63
2023-01-18T15:20:12.365Z,5.57
2023-01-18T15:22:40.627Z,5.40
2023-01-18T15:25:30.717Z,5.70
2023-01-18T15:28:11.682Z,5.90
2023-01-18T15:31:13.460Z,5.77
2023-01-18T15:33:41.195Z,5.90
2023-01-18T15:36:09.874Z,6.37
2023-01-18T15:38:37.353Z,6.80
2023-01-18T15:41:11.422Z,7.23
2023-01-18T15:43:42.242Z,7.37
2023-01-18T15:46:11.944Z,9.50
2023-01-18T15:48:52.116Z,8.60
2023-01-18T15:51:22.519Z,8.40
2023-01-18T15:53:56.123Z,8.10
2023-01-18T15:56:30.715Z,8.20
2023-01-18T15:59:00.717Z,9.03
2023-01-18T16:01:35.236Z,9.20
2023-01-18T16:04:22.613Z,8.10
2023-01-18T16:06:49.368Z,8.70
2023-01-18T16:09:20.691Z,9.07
2023-01-18T16:11:54.054Z,9.50
2023-01-18T16:14:27.732Z,8.93
2023-01-18T16:17:19.934Z,7.67
2023-01-18T16:19:52.202Z,7.50
2023-01-18T16:22:22.120Z,7.33
2023-01-18T16:25:01.519Z,6.77
2023-01-18T16:27:31.399Z,6.90
2023-01-18T16:30:07.595Z,7.30
2023-01-18T16:32:38.367Z,6.90
2023-01-18T16:35:09.277Z,7.13
2023-01-18T16:37:38.015Z,6.60
2023-01-18T16:40:08.873Z,6.73
2023-01-18T16:42:56.341Z,7.30
2023-01-18T16:45:22.918Z,7.03
2023-01-18T16:47:49.505Z,6.80
2023-01-18T16:50:17.691Z,6.10
2023-01-18T16:52:44.842Z,6.90
2023-01-18T16:55:16.110Z,6.70
2023-01-18T16:57:43.450Z,7.00
2023-01-18T17:00:20.444Z,6.00
2023-01-18T17:02:47.476Z,6.90
2023-01-18T17:05:15.777Z,6.97
2023-01-18T17:07:43.191Z,6.50
2023-01-18T17:10:21.155Z,7.40
2023-01-18T17:12:47.723Z,7.30
2023-01-18T17:15:14.422Z,6.93
2023-01-18T17:17:41.464Z,8.83
2023-01-18T17:20:35.079Z,9.17
2023-01-18T17:23:02.140Z,10.70
2023-01-18T17:25:29.621Z,11.93
2023-01-18T17:27:57.335Z,12.73
2023-01-18T17:30:24.612Z,13.07
2023-01-18T17:32:51.615Z,11.67
2023-01-18T17:35:21.843Z,10.43
2023-01-18T17:37:54.416Z,7.43
2023-01-18T17:40:38.183Z,7.47
2023-01-18T17:43:06.947Z,8.40
2023-01-18T17:45:33.521Z,7.00
2023-01-18T17:48:00.109Z,7.60
2023-01-18T17:50:27.365Z,7.47
2023-01-18T17:52:54.563Z,9.57
2023-01-18T17:55:27.305Z,12.37
2023-01-18T17:57:57.217Z,13.07
2023-01-18T18:00:23.952Z,14.47
2023-01-18T18:02:52.555Z,14.37
2023-01-18T18:05:20.114Z,13.10
2023-01-18T18:07:49.624Z,15.27
2023-01-18T18:10:16.830Z,16.00
2023-01-18T18:12:43.584Z,15.77
2023-01-18T18:15:10.361Z,16.57
2023-01-18T18:17:37.715Z,16.80
2023-01-18T18:20:04.845Z,18.40
2023-01-18T18:22:31.782Z,18.67
2023-01-18T18:24:58.358Z,15.20
2023-01-18T18:27:33.913Z,13.70
2023-01-18T18:30:04.524Z,13.13
2023-01-18T18:32:31.277Z,12.07
2023-01-18T18:34:58.088Z,9.53
2023-01-18T18:37:24.699Z,10.33
2023-01-18T18:39:51.349Z,9.97
2023-01-18T18:42:18.011Z,14.00
2023-01-18T18:44:44.987Z,16.70
2023-01-18T18:47:13.471Z,15.30
2023-01-18T18:49:40.940Z,12.93
2023-01-18T18:52:07.838Z,11.73
2023-01-18T18:54:34.796Z,11.00
2023-01-18T18:57:03.349Z,12.77
2023-01-18T18:59:30.155Z,10.20
2023-01-18T19:01:57.383Z,8.43
2023-01-18T19:04:24.577Z,6.93
2023-01-18T19:06:51.253Z,6.70
2023-01-18T19:09:17.984Z,6.63
2023-01-18T19:11:54.477Z,7.20
2023-01-18T19:14:21.594Z,6.70
2023-01-18T19:16:48.204Z,6.83
2023-01-18T19:19:14.818Z,6.30
2023-01-18T19:21:42.184Z,7.23
2023-01-18T19:24:09.011Z,8.03
2023-01-18T19:26:35.633Z,8.20
2023-01-18T19:29:02.614Z,7.63
2023-01-18T19:31:30.223Z,8.57
2023-01-18T19:33:56.973Z,10.23
2023-01-18T19:36:23.709Z,9.10
2023-01-18T19:38:57.741Z,7.83
2023-01-18T19:41:27.910Z,8.77
2023-01-18T19:43:54.505Z,7.77
2023-01-18T19:46:21.443Z,6.20
2023-01-18T19:48:48.201Z,6.67
2023-01-18T19:51:22.842Z,6.47
2023-01-18T19:53:52.458Z,7.20
2023-01-18T19:56:19.375Z,7.87
2023-01-18T19:58:46.461Z,7.00
2023-01-18T20:01:26.563Z,7.17
2023-01-18T20:03:57.250Z,8.03
2023-01-18T20:06:23.941Z,7.40
2023-01-18T20:08:52.430Z,7.00
2023-01-18T20:11:19.425Z,6.17
2023-01-18T20:13:50.461Z,6.20
2023-01-18T20:16:20.437Z,5.03
2023-01-18T20:19:21.791Z,5.73
2023-01-18T20:21:48.631Z,5.83
2023-01-18T20:24:16.218Z,9.30
2023-01-18T20:26:43.016Z,10.40
2023-01-18T20:29:11.123Z,10.20
2023-01-18T20:31:40.449Z,7.57
2023-01-18T20:34:08.282Z,6.87
2023-01-18T20:36:36.148Z,6.77
2023-01-18T20:39:04.614Z,6.27
2023-01-18T20:41:31.313Z,6.73
2023-01-18T20:43:58.835Z,7.03
2023-01-18T20:46:25.706Z,5.50
2023-01-18T20:48:52.942Z,6.10
2023-01-18T20:51:19.533Z,6.30
2023-01-18T20:53:46.481Z,6.60
2023-01-18T20:56:28.263Z,6.37
2023-01-18T20:58:55.835Z,5.73
2023-01-18T21:01:23.434Z,6.67
2023-01-18T21:03:56.583Z,7.17
2023-01-18T21:06:23.375Z,7.90
2023-01-18T21:08:55.171Z,7.33
2023-01-18T21:11:26.658Z,7.33
2023-01-18T21:13:55.196Z,7.83
2023-01-18T21:16:23.467Z,6.60
2023-01-18T21:18:52.716Z,6.57
2023-01-18T21:21:20.966Z,6.93
2023-01-18T21:23:47.990Z,6.70
2023-01-18T21:26:15.077Z,8.07
2023-01-18T21:28:43.415Z,7.93
2023-01-18T21:31:12.103Z,9.50
2023-01-18T21:33:39.452Z,9.47
2023-01-18T21:36:09.029Z,7.70
2023-01-18T21:38:36.289Z,9.43
2023-01-18T21:41:22.642Z,8.37
2023-01-18T21:44:10.161Z,7.13
2023-01-18T21:46:38.543Z,6.90
2023-01-18T21:49:06.781Z,6.90
2023-01-18T21:51:52.147Z,6.57
2023-01-18T21:54:19.692Z,6.23
2023-01-18T21:56:47.314Z,6.43
2023-01-18T21:59:14.684Z,6.87
2023-01-18T22:01:44.190Z,5.93
2023-01-18T22:04:32.385Z,7.10
2023-01-18T22:06:59.817Z,5.53
2023-01-18T22:09:28.047Z,6.80
2023-01-18T22:11:58.518Z,7.03
2023-01-18T22:14:26.037Z,7.70
2023-01-18T22:16:53.381Z,8.17
2023-01-18T22:19:20.067Z,7.70
2023-01-18T22:21:47.179Z,7.90
2023-01-18T22:24:14.781Z,7.00
2023-01-18T22:26:42.249Z,7.00
2023-01-18T22:29:09.444Z,6.53
2023-01-18T22:31:36.513Z,7.23
2023-01-18T22:34:05.417Z,6.33
2023-01-18T22:36:33.026Z,6.57
2023-01-18T22:38:59.625Z,6.83
2023-01-18T22:41:29.267Z,7.50
2023-01-18T22:43:56.466Z,7.10
2023-01-18T22:46:23.981Z,8.30
2023-01-18T22:48:50.665Z,7.13
2023-01-18T22:51:22.400Z,8.97
2023-01-18T22:53:50.119Z,7.83
2023-01-18T22:56:22.326Z,7.37
2023-01-18T22:58:49.673Z,7.00
2023-01-18T23:01:25.656Z,7.10
2023-01-18T23:03:54.877Z,8.00
2023-01-18T23:06:21.887Z,7.83
2023-01-18T23:08:48.810Z,7.57
2023-01-18T23:11:20.968Z,7.53
2023-01-18T23:14:09.758Z,7.63
2023-01-18T23:16:55.626Z,6.90
2023-01-18T23:19:24.197Z,7.07
2023-01-18T23:21:51.681Z,8.10
2023-01-18T23:24:18.641Z,7.87
2023-01-18T23:26:45.610Z,7.70
2023-01-18T23:29:12.640Z,7.73
2023-01-18T23:31:39.265Z,7.70
2023-01-18T23:34:05.830Z,7.27
2023-01-18T23:36:32.468Z,8.37
2023-01-18T23:39:17.426Z,7.40
2023-01-18T23:42:02.722Z,8.10
2023-01-18T23:44:47.825Z,8.40
2023-01-18T23:47:33.077Z,6.97
2023-01-18T23:50:18.440Z,7.77
2023-01-18T23:53:03.528Z,8.07
2023-01-18T23:55:30.092Z,8.00
2023-01-18T23:57:56.685Z,8.80
